createdAt,value
2022-11-09T00:00:51.853Z,7.50
2022-11-09T00:03:21.503Z,7.50
2022-11-09T00:05:56.864Z,7.50
2022-11-09T00:08:24.864Z,7.50
2022-11-09T00:10:52.800Z,7.40
2022-11-09T00:13:21.046Z,7.40
2022-11-09T00:15:49.229Z,7.50
2022-11-09T00:18:17.129Z,7.50
2022-11-09T00:20:48.199Z,7.50
2022-11-09T00:23:17.057Z,7.50
2022-11-09T00:25:45.331Z,7.40
2022-11-09T00:28:13.240Z,7.40
2022-11-09T00:30:41.660Z,7.40
2022-11-09T00:33:11.194Z,7.40
2022-11-09T00:35:39.768Z,7.30
2022-11-09T00:38:09.069Z,7.30
2022-11-09T00:40:36.996Z,7.30
2022-11-09T00:43:04.890Z,7.30
2022-11-09T00:45:32.783Z,7.40
2022-11-09T00:48:00.675Z,7.40
2022-11-09T00:50:28.652Z,7.40
2022-11-09T00:52:56.584Z,7.40
2022-11-09T00:55:25.852Z,7.40
2022-11-09T00:57:54.224Z,7.40
2022-11-09T01:00:23.625Z,7.30
2022-11-09T01:02:51.846Z,7.40
2022-11-09T01:05:19.978Z,7.30
2022-11-09T01:07:47.860Z,7.40
2022-11-09T01:10:15.747Z,7.40
2022-11-09T01:12:44.976Z,7.40
2022-11-09T01:15:12.927Z,7.40
2022-11-09T01:17:40.849Z,7.40
2022-11-09T01:20:09.667Z,7.40
2022-11-09T01:22:37.538Z,7.40
2022-11-09T01:25:06.128Z,7.40
2022-11-09T01:27:34.283Z,7.40
2022-11-09T01:30:03.599Z,7.50
2022-11-09T01:32:33.468Z,7.50
2022-11-09T01:35:01.368Z,7.50
2022-11-09T01:37:29.309Z,7.50
2022-11-09T01:39:57.214Z,7.50
2022-11-09T01:42:25.790Z,7.40
2022-11-09T01:45:26.656Z,7.40
2022-11-09T01:48:01.098Z,7.40
2022-11-09T01:50:35.551Z,7.40
2022-11-09T01:53:06.814Z,7.40
2022-11-09T01:55:35.152Z,7.40
2022-11-09T01:58:06.778Z,7.50
2022-11-09T02:00:39.002Z,7.50
2022-11-09T02:03:11.043Z,7.50
2022-11-09T02:05:41.588Z,7.50
2022-11-09T02:08:11.077Z,7.50
2022-11-09T02:10:44.619Z,7.60
2022-11-09T02:13:15.766Z,7.60
2022-11-09T02:15:46.048Z,7.70
2022-11-09T02:18:14.835Z,7.70
2022-11-09T02:20:48.319Z,7.80
2022-11-09T02:23:16.493Z,7.80
2022-11-09T02:25:49.458Z,7.80
2022-11-09T02:28:18.385Z,7.80
2022-11-09T02:30:50.929Z,7.80
2022-11-09T02:33:19.047Z,7.80
2022-11-09T02:35:48.609Z,7.80
2022-11-09T02:38:16.837Z,7.80
2022-11-09T02:40:49.153Z,7.80
2022-11-09T02:43:19.259Z,7.90
2022-11-09T02:45:47.340Z,7.80
2022-11-09T02:48:15.310Z,7.80
2022-11-09T02:50:43.206Z,7.80
2022-11-09T02:53:12.454Z,7.80
2022-11-09T02:55:40.530Z,7.80
2022-11-09T02:58:08.545Z,7.70
2022-11-09T03:00:36.430Z,7.70
2022-11-09T03:03:05.093Z,7.70
2022-11-09T03:05:33.049Z,7.80
2022-11-09T03:08:02.554Z,7.70
2022-11-09T03:10:31.987Z,7.80
2022-11-09T03:12:59.881Z,7.80
2022-11-09T03:15:27.793Z,7.70
2022-11-09T03:17:56.076Z,7.70
2022-11-09T03:20:23.987Z,7.70
2022-11-09T03:22:51.916Z,7.70
2022-11-09T03:25:19.809Z,7.70
2022-11-09T03:27:49.052Z,7.60
2022-11-09T03:30:19.054Z,7.60
2022-11-09T03:32:50.574Z,7.60
2022-11-09T03:35:18.917Z,7.70
2022-11-09T03:37:46.865Z,7.70
2022-11-09T03:40:14.776Z,7.70
2022-11-09T03:42:45.973Z,7.80
2022-11-09T03:45:16.341Z,7.80
2022-11-09T03:47:44.810Z,7.80
2022-11-09T03:50:14.144Z,7.80
2022-11-09T03:52:44.830Z,7.80
2022-11-09T03:55:12.847Z,7.80
2022-11-09T03:57:40.837Z,7.70
2022-11-09T04:00:10.002Z,7.70
2022-11-09T04:02:39.416Z,7.80
2022-11-09T04:05:08.621Z,7.80
2022-11-09T04:07:36.525Z,7.80
2022-11-09T04:10:04.896Z,7.80
2022-11-09T04:12:32.908Z,7.80
2022-11-09T04:15:00.861Z,7.80
2022-11-09T04:17:28.789Z,7.80
2022-11-09T04:19:58.072Z,7.80
2022-11-09T04:22:26.028Z,7.80
2022-11-09T04:24:53.900Z,7.70
2022-11-09T04:27:22.337Z,7.70
2022-11-09T04:29:50.229Z,7.70
2022-11-09T04:32:18.124Z,7.70
2022-11-09T04:34:46.058Z,7.60
2022-11-09T04:37:15.301Z,7.60
2022-11-09T04:39:43.177Z,7.60
2022-11-09T04:42:11.078Z,7.60
2022-11-09T04:44:38.936Z,7.70
2022-11-09T04:47:06.866Z,7.70
2022-11-09T04:49:34.748Z,7.70
2022-11-09T04:52:02.672Z,7.60
2022-11-09T04:54:31.901Z,7.60
2022-11-09T04:56:59.800Z,7.60
2022-11-09T04:59:28.915Z,7.60
2022-11-09T05:01:56.896Z,7.50
2022-11-09T05:04:24.872Z,7.50
2022-11-09T05:06:52.770Z,7.50
2022-11-09T05:09:20.668Z,7.50
2022-11-09T05:11:52.264Z,7.50
2022-11-09T05:14:20.153Z,7.60
2022-11-09T05:16:48.046Z,7.60
2022-11-09T05:19:16.220Z,7.60
2022-11-09T05:21:44.156Z,7.50
2022-11-09T05:24:11.081Z,7.50
2022-11-09T05:26:40.407Z,7.50
2022-11-09T05:29:11.870Z,7.60
2022-11-09T05:54:47.062Z,7.00
2022-11-09T05:57:15.192Z,6.90
2022-11-09T05:59:43.296Z,7.00
2022-11-09T06:02:11.419Z,7.00
2022-11-09T06:04:39.575Z,7.00
2022-11-09T06:07:07.840Z,7.00
2022-11-09T06:09:35.997Z,7.00
2022-11-09T06:12:05.947Z,7.00
2022-11-09T06:14:34.120Z,7.00
2022-11-09T06:17:02.221Z,7.00
2022-11-09T06:19:30.331Z,6.90
2022-11-09T06:21:58.448Z,6.80
2022-11-09T06:24:26.571Z,6.80
2022-11-09T06:26:54.695Z,6.80
2022-11-09T06:29:24.222Z,6.80
2022-11-09T06:31:52.475Z,6.80
2022-11-09T06:34:20.598Z,6.80
2022-11-09T06:36:48.763Z,6.80
2022-11-09T06:39:16.863Z,6.80
2022-11-09T06:41:47.606Z,6.80
2022-11-09T06:44:16.321Z,6.80
2022-11-09T06:46:45.843Z,6.80
2022-11-09T06:49:13.978Z,6.80
2022-11-09T06:51:42.123Z,6.80
2022-11-09T06:54:10.308Z,6.80
2022-11-09T06:56:38.427Z,6.80
2022-11-09T06:59:06.531Z,6.70
2022-11-09T07:01:34.713Z,6.70
2022-11-09T07:04:04.415Z,6.70
2022-11-09T07:06:32.563Z,6.60
2022-11-09T07:09:00.740Z,6.60
2022-11-09T07:11:29.002Z,6.70
2022-11-09T07:13:57.797Z,6.70
2022-11-09T07:16:26.070Z,6.80
2022-11-09T07:18:54.171Z,6.80
2022-11-09T07:21:23.689Z,6.80
2022-11-09T07:23:52.022Z,6.80
2022-11-09T07:26:20.161Z,6.80
2022-11-09T07:28:48.282Z,6.80
2022-11-09T07:31:16.452Z,6.90
2022-11-09T07:33:44.576Z,6.90
2022-11-09T07:36:16.869Z,7.00
2022-11-09T07:38:49.384Z,7.00
2022-11-09T07:41:17.500Z,7.10
2022-11-09T07:43:45.578Z,7.10
2022-11-09T07:46:13.671Z,7.10
2022-11-09T07:48:41.805Z,7.20
2022-11-09T07:51:10.703Z,7.20
2022-11-09T07:53:39.501Z,7.10
2022-11-09T07:56:09.673Z,7.20
2022-11-09T07:58:37.806Z,7.20
2022-11-09T08:01:08.846Z,7.30
2022-11-09T08:03:37.169Z,7.30
2022-11-09T08:06:05.559Z,7.40
2022-11-09T08:08:33.665Z,7.40
2022-11-09T08:11:01.813Z,7.50
2022-11-09T08:13:31.273Z,7.50
2022-11-09T08:16:02.883Z,7.60
2022-11-09T08:18:31.070Z,7.60
2022-11-09T08:21:02.325Z,7.60
2022-11-09T08:23:30.693Z,7.70
2022-11-09T08:25:58.812Z,7.70
2022-11-09T08:28:26.899Z,7.80
2022-11-09T08:31:00.767Z,7.80
2022-11-09T08:33:30.927Z,7.90
2022-11-09T08:35:59.039Z,8.00
2022-11-09T08:38:27.179Z,8.00
2022-11-09T08:40:58.881Z,8.10
2022-11-09T08:43:27.454Z,8.10
2022-11-09T08:45:55.862Z,8.20
2022-11-09T08:48:25.379Z,8.30
2022-11-09T08:50:54.500Z,8.30
2022-11-09T08:53:23.215Z,8.40
2022-11-09T08:55:51.533Z,8.50
2022-11-09T08:58:20.360Z,8.60
2022-11-09T09:00:48.823Z,8.70
2022-11-09T09:03:16.946Z,8.80
2022-11-09T09:05:46.655Z,8.90
2022-11-09T09:08:15.747Z,9.00
2022-11-09T09:10:44.331Z,9.10
2022-11-09T09:13:12.434Z,9.20
2022-11-09T09:15:41.272Z,9.20
2022-11-09T09:18:09.401Z,9.30
2022-11-09T09:20:37.499Z,9.40
2022-11-09T09:23:07.079Z,9.40
2022-11-09T09:25:35.221Z,9.50
2022-11-09T09:28:03.411Z,9.50
2022-11-09T09:30:31.535Z,9.50
2022-11-09T09:33:00.742Z,9.60
2022-11-09T09:35:29.668Z,9.60
2022-11-09T09:37:58.456Z,9.70
2022-11-09T09:40:39.395Z,9.70
2022-11-09T09:43:07.791Z,9.80
2022-11-09T09:45:40.344Z,9.90
2022-11-09T09:48:19.375Z,10.10
2022-11-09T09:50:50.719Z,10.30
2022-11-09T09:53:28.115Z,10.50
2022-11-09T09:56:03.705Z,10.80
2022-11-09T09:58:33.775Z,11.10
2022-11-09T10:01:06.898Z,11.40
2022-11-09T10:03:35.211Z,11.70
2022-11-09T10:06:12.691Z,11.90
2022-11-09T10:08:57.248Z,12.10
2022-11-09T10:11:34.979Z,12.20
2022-11-09T10:14:41.603Z,12.40
2022-11-09T10:17:20.667Z,12.50
2022-11-09T10:20:02.707Z,12.40
2022-11-09T10:22:42.475Z,12.20
2022-11-09T10:25:32.202Z,12.10
2022-11-09T10:28:13.023Z,11.90
2022-11-09T10:30:41.846Z,11.90
2022-11-09T10:33:17.129Z,11.90
2022-11-09T10:35:49.980Z,12.00
2022-11-09T10:38:24.226Z,12.00
2022-11-09T10:40:57.042Z,12.10
2022-11-09T10:43:26.531Z,12.00
2022-11-09T10:46:04.865Z,12.00
2022-11-09T10:48:35.822Z,12.00
2022-11-09T10:51:04.394Z,12.00
2022-11-09T10:53:33.983Z,12.00
2022-11-09T10:56:20.280Z,12.10
2022-11-09T10:58:51.962Z,12.10
2022-11-09T11:01:22.900Z,12.10
2022-11-09T11:03:52.743Z,12.10
2022-11-09T11:06:28.331Z,12.10
2022-11-09T11:09:16.569Z,12.10
2022-11-09T11:11:44.685Z,12.00
2022-11-09T11:14:21.675Z,12.00
2022-11-09T11:16:53.302Z,12.10
2022-11-09T11:19:34.205Z,12.10
2022-11-09T11:22:23.156Z,12.10
2022-11-09T11:24:59.670Z,12.10
2022-11-09T11:27:37.326Z,12.10
2022-11-09T11:30:12.740Z,12.10
2022-11-09T11:32:45.438Z,12.00
2022-11-09T11:35:19.938Z,12.00
2022-11-09T11:38:01.679Z,12.00
2022-11-09T11:40:34.087Z,12.00
2022-11-09T11:43:17.286Z,12.10
2022-11-09T11:45:54.354Z,12.10
2022-11-09T11:48:36.659Z,12.10
2022-11-09T11:51:11.091Z,12.00
2022-11-09T11:53:49.055Z,12.00
2022-11-09T11:56:27.407Z,12.10
2022-11-09T11:59:19.682Z,12.00
2022-11-09T12:02:04.390Z,12.10
2022-11-09T12:04:58.531Z,12.10
2022-11-09T12:07:36.226Z,12.10
2022-11-09T12:10:22.711Z,12.10
2022-11-09T12:13:01.536Z,12.10
2022-11-09T12:15:40.791Z,12.20
2022-11-09T12:18:22.434Z,12.20
2022-11-09T12:20:58.563Z,12.20
2022-11-09T12:23:42.710Z,12.20
2022-11-09T12:26:24.023Z,12.10
2022-11-09T12:29:09.006Z,12.10
2022-11-09T12:31:50.595Z,12.10
2022-11-09T12:34:26.031Z,12.10
2022-11-09T12:36:59.222Z,12.10
2022-11-09T12:39:33.838Z,12.10
2022-11-09T12:42:06.942Z,12.10
2022-11-09T12:44:39.243Z,12.10
2022-11-09T12:47:15.450Z,12.10
2022-11-09T12:49:47.455Z,12.10
2022-11-09T12:52:19.482Z,12.10
2022-11-09T12:54:50.114Z,12.20
2022-11-09T12:57:23.968Z,12.10
2022-11-09T12:59:53.850Z,12.10
2022-11-09T13:02:30.375Z,12.10
2022-11-09T13:05:02.394Z,12.10
2022-11-09T13:07:50.650Z,12.10
2022-11-09T13:10:29.826Z,12.10
2022-11-09T13:13:07.290Z,12.10
2022-11-09T13:15:36.307Z,12.10
2022-11-09T13:18:06.954Z,12.00
2022-11-09T13:21:00.295Z,12.00
2022-11-09T13:24:00.124Z,12.00
2022-11-09T13:27:02.557Z,12.00
2022-11-09T13:29:31.691Z,12.00
2022-11-09T13:32:33.450Z,12.00
2022-11-09T13:35:03.619Z,12.00
2022-11-09T13:37:49.526Z,11.90
2022-11-09T13:40:48.294Z,12.00
2022-11-09T13:43:23.403Z,12.00
2022-11-09T13:45:54.581Z,12.00
2022-11-09T13:48:39.474Z,11.90
2022-11-09T13:51:10.926Z,11.90
2022-11-09T13:53:58.185Z,11.90
2022-11-09T13:56:32.846Z,11.90
2022-11-09T13:59:08.708Z,11.90
2022-11-09T14:01:47.264Z,11.90
2022-11-09T14:04:27.201Z,11.90
2022-11-09T14:07:03.588Z,11.90
2022-11-09T14:09:42.534Z,11.90
2022-11-09T14:12:32.016Z,11.80
2022-11-09T14:15:23.742Z,11.80
2022-11-09T14:18:04.242Z,11.80
2022-11-09T14:20:41.868Z,11.80
2022-11-09T14:23:18.085Z,11.80
2022-11-09T14:25:49.234Z,11.80
2022-11-09T14:28:23.657Z,11.80
2022-11-09T14:30:51.781Z,11.80
2022-11-09T14:33:23.726Z,11.80
2022-11-09T14:35:53.537Z,11.70
2022-11-09T14:38:25.885Z,11.70
2022-11-09T14:40:56.177Z,11.70
2022-11-09T14:43:28.740Z,11.80
2022-11-09T14:46:00.177Z,11.70
2022-11-09T14:48:29.890Z,11.70
2022-11-09T14:51:00.444Z,11.70
2022-11-09T14:53:32.048Z,11.70
2022-11-09T14:56:04.411Z,11.70
2022-11-09T14:58:35.185Z,11.70
2022-11-09T15:01:11.800Z,11.70
2022-11-09T15:03:40.046Z,11.70
2022-11-09T15:06:10.214Z,11.60
2022-11-09T15:08:41.231Z,11.60
2022-11-09T15:11:10.816Z,11.60
2022-11-09T15:13:41.643Z,11.60
2022-11-09T15:16:21.106Z,11.60
2022-11-09T15:18:49.851Z,11.60
2022-11-09T15:21:21.394Z,11.60
2022-11-09T15:23:50.886Z,11.60
2022-11-09T15:26:40.255Z,11.60
2022-11-09T15:29:30.764Z,11.60
2022-11-09T15:32:01.004Z,11.60
2022-11-09T15:34:39.315Z,11.60
2022-11-09T15:37:21.763Z,11.60
2022-11-09T15:39:50.328Z,11.50
2022-11-09T15:42:20.312Z,11.50
2022-11-09T15:44:52.691Z,11.50
2022-11-09T15:47:31.627Z,11.50
2022-11-09T15:50:00.199Z,11.50
2022-11-09T15:52:28.953Z,11.50
2022-11-09T15:54:57.114Z,11.40
2022-11-09T15:57:26.590Z,11.40
2022-11-09T15:59:54.720Z,11.30
2022-11-09T16:02:22.813Z,11.20
2022-11-09T16:04:50.927Z,11.20
2022-11-09T16:07:19.124Z,11.10
2022-11-09T16:09:47.313Z,11.10
2022-11-09T16:12:15.410Z,11.10
2022-11-09T16:14:44.898Z,11.00
2022-11-09T16:17:13.013Z,11.00
2022-11-09T16:19:43.218Z,11.00
2022-11-09T16:22:12.554Z,11.00
2022-11-09T16:24:40.748Z,11.00
2022-11-09T16:27:17.134Z,11.00
2022-11-09T16:29:57.921Z,10.90
2022-11-09T16:32:26.052Z,10.90
2022-11-09T16:35:15.580Z,10.80
2022-11-09T16:37:42.585Z,10.80
2022-11-09T16:40:14.218Z,10.80
2022-11-09T16:42:42.578Z,10.80
2022-11-09T16:45:15.541Z,10.70
2022-11-09T16:47:47.285Z,10.70
2022-11-09T16:50:15.753Z,10.70
2022-11-09T16:52:44.761Z,10.70
2022-11-09T16:55:12.925Z,10.70
2022-11-09T16:57:41.156Z,10.70
2022-11-09T17:00:13.061Z,10.60
2022-11-09T17:02:41.188Z,10.60
2022-11-09T17:05:09.768Z,10.60
2022-11-09T17:07:42.787Z,10.60
2022-11-09T17:10:11.642Z,10.50
2022-11-09T17:12:39.779Z,10.50
2022-11-09T17:15:09.022Z,10.50
2022-11-09T17:17:38.490Z,10.50
2022-11-09T17:20:07.692Z,10.50
2022-11-09T17:22:35.792Z,10.50
2022-11-09T17:25:04.249Z,10.50
2022-11-09T17:27:32.349Z,10.40
2022-11-09T17:30:00.471Z,10.40
2022-11-09T17:32:29.449Z,10.40
2022-11-09T17:34:58.956Z,10.40
2022-11-09T17:37:28.554Z,10.30
2022-11-09T17:39:56.744Z,10.30
2022-11-09T17:42:24.954Z,10.30
2022-11-09T17:44:53.052Z,10.20
2022-11-09T17:47:21.155Z,10.20
2022-11-09T17:49:49.252Z,10.20
2022-11-09T17:52:18.764Z,10.10
2022-11-09T17:54:47.073Z,10.10
2022-11-09T17:57:15.713Z,10.10
2022-11-09T17:59:43.812Z,10.10
2022-11-09T18:02:11.991Z,10.00
2022-11-09T18:04:41.000Z,10.00
2022-11-09T18:07:09.146Z,9.90
2022-11-09T18:09:41.873Z,9.80
2022-11-09T18:12:10.659Z,9.80
2022-11-09T18:14:38.762Z,9.70
2022-11-09T18:17:06.861Z,9.70
2022-11-09T18:19:35.072Z,9.60
2022-11-09T18:22:04.870Z,9.60
2022-11-09T18:24:36.547Z,9.50
2022-11-09T18:27:06.056Z,9.50
2022-11-09T18:29:34.193Z,9.40
2022-11-09T18:32:02.317Z,9.40
2022-11-09T18:34:30.411Z,9.30
2022-11-09T18:36:58.506Z,9.30
2022-11-09T18:39:27.067Z,9.20
2022-11-09T18:41:57.043Z,9.20
2022-11-09T18:44:26.764Z,9.20
2022-11-09T18:46:54.899Z,9.10
2022-11-09T18:49:23.021Z,9.10
2022-11-09T18:51:51.136Z,9.00
2022-11-09T18:54:19.247Z,9.00
2022-11-09T18:56:47.647Z,8.90
2022-11-09T18:59:16.071Z,8.80
2022-11-09T19:01:45.581Z,8.80
2022-11-09T19:04:16.024Z,8.80
2022-11-09T19:06:44.655Z,8.70
2022-11-09T19:09:35.244Z,8.70
2022-11-09T19:12:06.635Z,8.70
2022-11-09T19:14:40.677Z,8.60
2022-11-09T19:17:13.572Z,8.60
2022-11-09T19:19:42.364Z,8.60
2022-11-09T19:22:16.977Z,8.60
2022-11-09T19:24:46.037Z,8.60
2022-11-09T19:27:14.358Z,8.60
2022-11-09T19:29:42.483Z,8.60
2022-11-09T19:32:12.006Z,8.60
2022-11-09T19:34:42.728Z,8.60
2022-11-09T19:37:11.028Z,8.60
2022-11-09T19:39:43.039Z,8.50
2022-11-09T19:42:11.614Z,8.50
2022-11-09T19:44:39.745Z,8.40
2022-11-09T19:47:07.916Z,8.40
2022-11-09T19:49:37.454Z,8.40
2022-11-09T19:52:05.800Z,8.30
2022-11-09T19:54:34.043Z,8.30
2022-11-09T19:57:02.194Z,8.30
2022-11-09T19:59:30.311Z,8.30
2022-11-09T20:01:58.439Z,8.20
2022-11-09T20:04:26.648Z,8.20
2022-11-09T20:06:56.164Z,8.20
2022-11-09T20:09:24.294Z,8.20
2022-11-09T20:12:09.707Z,8.10
2022-11-09T20:14:37.806Z,8.10
2022-11-09T20:17:06.019Z,8.10
2022-11-09T20:19:34.156Z,8.10
2022-11-09T20:22:03.650Z,8.10
2022-11-09T20:24:31.747Z,8.10
2022-11-09T20:26:59.882Z,8.00
2022-11-09T20:29:28.019Z,8.00
2022-11-09T20:31:56.139Z,7.90
2022-11-09T20:34:25.547Z,8.00
2022-11-09T20:36:53.660Z,7.90
2022-11-09T20:39:23.142Z,7.90
2022-11-09T20:41:51.231Z,7.90
2022-11-09T20:44:19.360Z,7.90
2022-11-09T20:46:47.645Z,7.90
2022-11-09T20:49:15.899Z,7.80
2022-11-09T20:51:44.041Z,7.80
2022-11-09T20:54:12.622Z,7.80
2022-11-09T20:56:42.240Z,7.80
2022-11-09T20:59:10.489Z,7.80
2022-11-09T21:01:38.947Z,7.80
2022-11-09T21:04:07.405Z,7.80
2022-11-09T21:06:35.560Z,7.80
2022-11-09T21:09:05.659Z,7.80
2022-11-09T21:11:36.969Z,7.80
2022-11-09T21:14:06.449Z,7.70
2022-11-09T21:16:34.552Z,7.70
2022-11-09T21:19:03.251Z,7.70
2022-11-09T21:21:36.307Z,7.70
2022-11-09T21:24:22.598Z,7.70
2022-11-09T21:27:08.302Z,7.70
2022-11-09T21:29:52.622Z,7.70
2022-11-09T21:32:21.477Z,7.70
2022-11-09T21:34:49.716Z,7.60
2022-11-09T21:37:18.286Z,7.60
2022-11-09T21:39:46.473Z,7.60
2022-11-09T21:42:14.885Z,7.60
2022-11-09T21:44:44.384Z,7.60
2022-11-09T21:47:12.516Z,7.60
2022-11-09T21:49:40.641Z,7.50
2022-11-09T21:52:08.760Z,7.50
2022-11-09T21:54:36.876Z,7.50
2022-11-09T21:57:05.368Z,7.50
2022-11-09T21:59:33.466Z,7.40
2022-11-09T22:02:02.942Z,7.40
2022-11-09T22:04:31.049Z,7.40
2022-11-09T22:06:59.187Z,7.40
2022-11-09T22:09:32.518Z,7.40
2022-11-09T22:12:25.597Z,7.40
2022-11-09T22:15:11.422Z,7.40
2022-11-09T22:17:41.062Z,7.40
2022-11-09T22:20:28.361Z,7.30
2022-11-09T22:22:56.520Z,7.30
2022-11-09T22:25:24.717Z,7.30
2022-11-09T22:27:52.858Z,7.20
2022-11-09T22:30:21.083Z,7.20
2022-11-09T22:32:50.650Z,7.20
2022-11-09T22:35:18.796Z,7.20
2022-11-09T22:37:46.921Z,7.20
2022-11-09T22:40:15.037Z,7.20
2022-11-09T22:42:43.130Z,7.10
2022-11-09T22:45:11.763Z,7.10
2022-11-09T22:47:39.863Z,7.10
2022-11-09T22:50:09.846Z,7.10
2022-11-09T22:52:37.933Z,7.20
2022-11-09T22:55:06.691Z,7.20
2022-11-09T22:57:37.138Z,7.20
2022-11-09T23:00:05.786Z,7.30
2022-11-09T23:02:33.897Z,7.30
2022-11-09T23:05:01.988Z,7.30
2022-11-09T23:07:31.523Z,7.30
2022-11-09T23:09:59.625Z,7.30
2022-11-09T23:12:27.749Z,7.30
2022-11-09T23:15:05.211Z,7.30
2022-11-09T23:17:51.468Z,7.20
2022-11-09T23:20:20.108Z,7.20
2022-11-09T23:22:49.791Z,7.20
2022-11-09T23:25:35.722Z,7.20
2022-11-09T23:28:03.910Z,7.20
2022-11-09T23:30:32.030Z,7.20
2022-11-09T23:33:01.896Z,7.30
2022-11-09T23:35:30.113Z,7.30
2022-11-09T23:38:04.027Z,7.30
2022-11-09T23:40:34.036Z,7.30
2022-11-09T23:43:02.904Z,7.30
2022-11-09T23:45:31.319Z,7.30
2022-11-09T23:47:59.441Z,7.30
2022-11-09T23:50:27.927Z,7.40
2022-11-09T23:52:58.210Z,7.30
2022-11-09T23:55:28.651Z,7.30
2022-11-09T23:57:57.319Z,7.30
